Time;durP1;ratioP1;P1;durP2;ratioP2;P2;SDS_P1;SDS_P2;PMS_P1;PMS_P2;Temp;Humidity;BMP_temperature;BMP_pressure;BME280_temperature;BME280_humidity;BME280_pressure;Samples;Min_cycle;Max_cycle;Signal;HPM_P1;HPM_P2
2022/03/02 00:02:13;;;;;;;45.10;19.23;;;3.90;76.80;;;;;;5069731;28;20060;-87
2022/03/02 00:04:40;;;;;;;31.10;18.52;;;3.90;76.20;;;;;;5040489;28;20057;-87
2022/03/02 00:07:07;;;;;;;27.45;17.38;;;3.90;76.10;;;;;;5056129;28;20046;-87
2022/03/02 00:09:34;;;;;;;28.13;16.33;;;3.90;77.00;;;;;;5054545;28;20138;-87
2022/03/02 00:12:01;;;;;;;31.60;17.02;;;3.90;76.10;;;;;;5051060;28;20053;-87
2022/03/02 00:14:27;;;;;;;28.63;16.58;;;3.90;77.80;;;;;;5056323;28;20132;-87
2022/03/02 00:16:54;;;;;;;32.70;16.50;;;3.90;78.70;;;;;;5055819;28;20803;-87
2022/03/02 00:19:21;;;;;;;26.73;16.00;;;3.90;79.60;;;;;;5050954;28;20058;-87
2022/03/02 00:21:48;;;;;;;24.58;14.98;;;3.90;80.30;;;;;;5055849;28;20112;-87
2022/03/02 00:24:14;;;;;;;26.65;15.90;;;3.80;80.00;;;;;;5059501;28;20050;-87
2022/03/02 00:26:41;;;;;;;26.48;15.88;;;3.80;78.80;;;;;;5057149;28;20057;-87
2022/03/02 00:29:08;;;;;;;26.80;15.48;;;3.80;79.30;;;;;;5035715;28;20049;-87
2022/03/02 00:31:34;;;;;;;27.08;15.48;;;3.80;78.90;;;;;;5053840;28;20060;-87
2022/03/02 00:34:01;;;;;;;24.58;14.85;;;3.80;79.50;;;;;;5053778;28;20053;-87
2022/03/02 00:36:30;;;;;;;30.63;15.35;;;3.80;78.80;;;;;;5053710;28;20493;-87
2022/03/02 00:38:57;;;;;;;26.90;15.50;;;3.80;80.40;;;;;;5040161;28;20058;-87
2022/03/02 00:41:24;;;;;;;30.55;16.90;;;3.70;80.90;;;;;;5053396;28;20046;-87
2022/03/02 00:43:51;;;;;;;26.95;15.90;;;3.70;81.30;;;;;;5041340;28;20053;-87
2022/03/02 00:46:19;;;;;;;26.08;16.77;;;3.70;80.80;;;;;;5051945;28;20057;-87
2022/03/02 00:48:46;;;;;;;29.90;17.13;;;3.70;81.00;;;;;;5044332;28;20048;-87
2022/03/02 00:51:12;;;;;;;31.92;18.13;;;3.70;79.80;;;;;;5053374;28;20143;-87
2022/03/02 00:53:39;;;;;;;32.35;18.90;;;3.70;79.70;;;;;;5047730;28;20053;-87
2022/03/02 00:56:06;;;;;;;34.42;19.67;;;3.70;80.00;;;;;;5051463;28;20053;-87
2022/03/02 00:58:33;;;;;;;33.30;18.60;;;3.70;80.40;;;;;;5066452;28;20145;-86
2022/03/02 01:00:59;;;;;;;36.55;20.35;;;3.70;80.80;;;;;;5051587;28;20058;-86
2022/03/02 01:03:27;;;;;;;36.55;19.60;;;3.60;80.80;;;;;;5053102;28;20076;-87
2022/03/02 01:05:53;;;;;;;34.88;19.23;;;3.60;80.60;;;;;;5046306;28;20135;-87
2022/03/02 01:08:20;;;;;;;34.53;20.08;;;3.60;80.20;;;;;;5052633;28;20048;-87
2022/03/02 01:10:47;;;;;;;34.97;19.42;;;3.60;79.50;;;;;;5062207;28;20533;-87
2022/03/02 01:13:14;;;;;;;35.53;18.48;;;3.60;78.30;;;;;;5058333;28;20049;-87
2022/03/02 01:15:41;;;;;;;35.42;19.45;;;3.60;79.30;;;;;;5047078;28;20133;-87
2022/03/02 01:18:08;;;;;;;31.25;18.80;;;3.60;79.30;;;;;;5059410;28;20424;-87
2022/03/02 01:20:35;;;;;;;34.97;19.27;;;3.50;79.80;;;;;;5064384;28;20105;-87
2022/03/02 01:23:02;;;;;;;33.42;18.48;;;3.50;80.40;;;;;;5034893;28;20054;-87
2022/03/02 01:25:29;;;;;;;32.13;18.15;;;3.40;80.80;;;;;;5056149;28;20127;-86
2022/03/02 01:28:00;;;;;;;32.45;17.88;;;3.40;80.50;;;;;;5055320;28;20053;-87
2022/03/02 01:30:27;;;;;;;30.42;16.80;;;3.40;80.50;;;;;;5043968;28;20061;-86
2022/03/02 01:32:54;;;;;;;28.13;17.38;;;3.30;80.90;;;;;;5060028;28;20795;-87
2022/03/02 01:35:21;;;;;;;28.90;16.50;;;3.30;80.50;;;;;;5051620;28;20056;-86
2022/03/02 01:37:50;;;;;;;30.02;17.88;;;3.30;81.20;;;;;;5055690;28;20045;-86
2022/03/02 01:40:17;;;;;;;31.67;17.90;;;3.20;82.10;;;;;;5042874;28;20082;-86
2022/03/02 01:42:44;;;;;;;37.53;18.83;;;3.20;81.30;;;;;;5046003;28;20049;-86
2022/03/02 01:45:13;;;;;;;35.40;18.20;;;3.20;81.70;;;;;;5049677;28;20045;-86
2022/03/02 01:47:40;;;;;;;29.30;16.65;;;3.20;80.30;;;;;;5045135;28;20053;-86
2022/03/02 01:50:11;;;;;;;33.50;17.90;;;3.20;80.50;;;;;;5035263;28;20041;-86
2022/03/02 01:52:38;;;;;;;24.05;15.13;;;3.20;79.40;;;;;;5041435;28;20053;-87
2022/03/02 01:55:07;;;;;;;28.45;16.98;;;3.20;79.00;;;;;;5045553;28;20061;-87
2022/03/02 01:57:34;;;;;;;27.40;16.58;;;3.20;79.30;;;;;;5052625;28;20061;-86
2022/03/02 02:00:05;;;;;;;31.67;17.60;;;3.20;79.70;;;;;;5046617;28;20050;-86
2022/03/02 02:02:32;;;;;;;30.10;16.58;;;3.20;81.40;;;;;;5048496;28;20057;-85
2022/03/02 02:04:59;;;;;;;23.83;14.90;;;3.10;82.00;;;;;;5038923;28;20109;-86
2022/03/02 02:07:27;;;;;;;31.10;16.25;;;3.10;82.00;;;;;;5032067;28;20085;-86
2022/03/02 02:09:57;;;;;;;31.80;16.65;;;3.00;81.50;;;;;;5068414;28;20089;-86
2022/03/02 02:12:24;;;;;;;23.73;14.20;;;3.00;80.70;;;;;;5059238;28;20045;-86
2022/03/02 02:14:51;;;;;;;22.85;13.73;;;3.00;80.30;;;;;;5067980;28;20049;-86
2022/03/02 02:17:18;;;;;;;26.42;16.00;;;3.00;81.00;;;;;;5052395;28;20060;-86
2022/03/02 02:19:45;;;;;;;26.33;15.30;;;2.90;80.80;;;;;;5081097;28;20029;-86
2022/03/02 02:22:12;;;;;;;28.83;13.80;;;2.90;80.00;;;;;;5071518;28;20067;-86
2022/03/02 02:24:39;;;;;;;25.95;14.48;;;2.90;80.50;;;;;;5061300;28;20050;-87
2022/03/02 02:27:06;;;;;;;29.88;16.92;;;2.90;79.90;;;;;;5041348;28;20100;-86
2022/03/02 02:29:35;;;;;;;28.10;15.95;;;2.90;80.20;;;;;;5059246;28;20076;-86
2022/03/02 02:32:03;;;;;;;31.70;17.88;;;2.90;81.80;;;;;;5056915;28;20115;-86
2022/03/02 02:34:30;;;;;;;31.60;18.67;;;2.80;82.00;;;;;;5033798;28;20076;-86
2022/03/02 02:36:58;;;;;;;33.78;19.88;;;2.80;81.70;;;;;;5056152;28;20068;-86
2022/03/02 02:39:28;;;;;;;37.00;18.30;;;2.80;80.90;;;;;;5044185;28;20068;-86
2022/03/02 02:42:03;;;;;;;32.78;18.58;;;2.80;81.10;;;;;;5038722;28;20057;-87
2022/03/02 02:44:30;;;;;;;30.75;17.80;;;2.80;82.30;;;;;;5057473;28;20842;-86
2022/03/02 02:46:57;;;;;;;35.33;17.65;;;2.80;81.80;;;;;;5056560;28;20053;-86
2022/03/02 02:49:25;;;;;;;32.45;17.83;;;2.80;81.60;;;;;;5038025;28;20059;-86
2022/03/02 02:51:53;;;;;;;39.55;21.38;;;2.80;80.80;;;;;;5057270;28;20053;-86
2022/03/02 02:54:21;;;;;;;34.50;19.00;;;2.90;81.40;;;;;;5066935;28;20057;-86
2022/03/02 02:56:48;;;;;;;32.58;19.38;;;2.90;81.70;;;;;;5085174;28;20075;-87
2022/03/02 02:59:15;;;;;;;35.85;19.27;;;2.90;82.00;;;;;;5074458;28;20125;-86
2022/03/02 03:01:41;;;;;;;31.33;17.90;;;2.90;82.90;;;;;;5073126;28;20109;-86
2022/03/02 03:04:09;;;;;;;31.73;17.25;;;2.90;83.70;;;;;;5073918;28;20052;-86
2022/03/02 03:06:36;;;;;;;29.65;17.98;;;2.90;83.90;;;;;;5066856;28;20053;-86
2022/03/02 03:09:03;;;;;;;35.05;18.85;;;2.90;82.90;;;;;;5057245;28;20049;-87
2022/03/02 03:11:30;;;;;;;32.45;18.65;;;3.00;81.40;;;;;;5067267;28;20080;-86
2022/03/02 03:13:57;;;;;;;32.17;17.70;;;2.90;80.80;;;;;;5051364;28;20053;-86
2022/03/02 03:16:24;;;;;;;30.63;17.98;;;3.00;80.30;;;;;;5056634;28;20723;-87
2022/03/02 03:18:52;;;;;;;30.23;16.88;;;3.00;81.10;;;;;;5041445;28;20099;-87
2022/03/02 03:21:19;;;;;;;33.97;18.55;;;2.90;82.00;;;;;;5053051;28;20056;-86
2022/03/02 03:23:45;;;;;;;33.40;19.17;;;2.90;81.20;;;;;;5055979;28;20053;-86
2022/03/02 03:26:12;;;;;;;32.53;18.70;;;2.90;81.90;;;;;;5036893;28;20062;-86
2022/03/02 03:28:39;;;;;;;34.03;19.02;;;2.90;82.20;;;;;;5032520;28;20988;-86
2022/03/02 03:31:06;;;;;;;33.10;18.40;;;2.80;82.90;;;;;;5057429;28;20060;-86
2022/03/02 03:33:33;;;;;;;33.50;19.85;;;2.80;82.90;;;;;;5063002;28;20060;-86
2022/03/02 03:36:00;;;;;;;37.85;20.50;;;2.70;83.30;;;;;;5058089;28;20045;-86
2022/03/02 03:38:27;;;;;;;31.70;17.85;;;2.70;83.30;;;;;;5051328;28;20074;-86
2022/03/02 03:40:54;;;;;;;30.83;17.33;;;2.70;82.80;;;;;;5050210;28;20046;-86
2022/03/02 03:43:21;;;;;;;33.58;18.92;;;2.70;82.30;;;;;;5060314;28;20050;-86
2022/03/02 03:45:49;;;;;;;30.10;17.10;;;2.70;82.60;;;;;;5042393;28;20041;-86
2022/03/02 03:48:16;;;;;;;32.92;18.38;;;2.70;82.10;;;;;;5049009;28;20042;-86
2022/03/02 03:50:44;;;;;;;31.33;17.88;;;2.70;81.50;;;;;;5055360;28;20060;-86
2022/03/02 03:53:12;;;;;;;25.42;15.18;;;2.70;81.70;;;;;;5056974;28;20045;-86
2022/03/02 03:55:39;;;;;;;32.22;17.00;;;2.70;81.80;;;;;;5059465;28;20245;-86
2022/03/02 03:58:06;;;;;;;35.47;18.33;;;2.60;82.00;;;;;;5060157;28;20577;-86
2022/03/02 04:00:33;;;;;;;29.13;16.45;;;2.60;81.80;;;;;;5045707;28;20884;-86
2022/03/02 04:03:01;;;;;;;31.48;17.55;;;2.50;83.00;;;;;;5018387;28;20055;-86
2022/03/02 04:05:28;;;;;;;35.00;18.17;;;2.50;83.40;;;;;;5032927;28;20084;-87
2022/03/02 04:07:55;;;;;;;28.55;16.95;;;2.50;83.60;;;;;;5031065;28;20128;-86
2022/03/02 04:10:22;;;;;;;33.78;18.52;;;2.50;83.30;;;;;;5041927;28;20125;-87
2022/03/02 04:12:49;;;;;;;35.17;17.48;;;2.40;83.30;;;;;;5054057;28;20049;-86
2022/03/02 04:15:16;;;;;;;33.40;18.65;;;2.50;83.10;;;;;;5053464;28;20143;-87
2022/03/02 04:17:42;;;;;;;41.33;20.38;;;2.50;83.70;;;;;;5063563;28;20145;-87
2022/03/02 04:20:10;;;;;;;31.38;18.60;;;2.50;83.80;;;;;;5054448;28;20060;-87
2022/03/02 04:22:37;;;;;;;29.08;18.27;;;2.40;83.20;;;;;;5046078;28;20077;-87
2022/03/02 04:25:05;;;;;;;32.63;18.10;;;2.50;82.50;;;;;;5036997;28;20050;-87
2022/03/02 04:27:31;;;;;;;33.45;18.75;;;2.50;82.00;;;;;;5036363;28;20441;-87
2022/03/02 04:29:58;;;;;;;33.28;18.17;;;2.50;82.50;;;;;;5053265;28;20591;-87
2022/03/02 04:32:25;;;;;;;31.85;17.55;;;2.50;83.40;;;;;;5053503;28;20099;-87
2022/03/02 04:34:52;;;;;;;29.10;17.67;;;2.50;82.80;;;;;;5053536;28;20927;-87
2022/03/02 04:37:19;;;;;;;33.67;19.17;;;2.50;82.50;;;;;;5053203;28;20049;-87
2022/03/02 04:39:46;;;;;;;32.40;19.25;;;2.50;81.50;;;;;;5052619;28;20057;-87
2022/03/02 04:42:13;;;;;;;32.90;18.50;;;2.60;81.10;;;;;;5040388;28;20146;-87
2022/03/02 04:44:40;;;;;;;26.40;15.18;;;2.60;80.50;;;;;;5048772;28;20053;-87
2022/03/02 04:47:07;;;;;;;27.10;15.20;;;2.60;80.60;;;;;;5037242;28;20516;-87
2022/03/02 04:49:34;;;;;;;28.98;16.58;;;2.60;80.90;;;;;;5040561;28;20053;-87
2022/03/02 04:52:01;;;;;;;30.23;16.60;;;2.60;81.20;;;;;;5049185;28;20737;-87
2022/03/02 04:57:13;;;;;;;26.08;15.48;;;2.60;82.00;;;;;;5053265;28;20500;-87
2022/03/02 04:59:40;;;;;;;25.55;14.70;;;2.60;82.80;;;;;;5053075;28;20815;-86
2022/03/02 05:02:07;;;;;;;26.02;15.85;;;2.60;82.60;;;;;;5053799;28;20050;-87
2022/03/02 05:04:34;;;;;;;26.88;17.08;;;2.60;82.40;;;;;;5067065;28;20960;-87
2022/03/02 05:07:01;;;;;;;30.25;16.75;;;2.60;81.30;;;;;;5050126;28;20037;-87
2022/03/02 05:09:28;;;;;;;29.70;16.88;;;2.50;81.30;;;;;;5057053;28;20132;-86
2022/03/02 05:11:55;;;;;;;27.35;15.95;;;2.50;80.80;;;;;;5047259;28;20129;-86
2022/03/02 05:14:22;;;;;;;26.02;15.90;;;2.50;81.20;;;;;;5050940;28;20132;-86
2022/03/02 05:16:48;;;;;;;29.10;17.08;;;2.40;81.30;;;;;;5047914;28;20057;-87
2022/03/02 05:19:15;;;;;;;30.45;17.40;;;2.30;81.60;;;;;;5052622;28;20049;-87
2022/03/02 05:21:42;;;;;;;26.05;16.23;;;2.20;81.70;;;;;;5055347;28;20053;-86
2022/03/02 05:24:09;;;;;;;31.25;17.13;;;2.20;81.00;;;;;;5039014;28;20049;-87
2022/03/02 05:26:36;;;;;;;29.33;16.95;;;2.10;80.50;;;;;;5052188;28;20057;-86
2022/03/02 05:29:03;;;;;;;30.70;16.80;;;2.10;80.00;;;;;;5045411;28;20046;-87
2022/03/02 05:31:30;;;;;;;30.02;16.52;;;2.00;80.40;;;;;;5057116;28;20053;-87
2022/03/02 05:33:57;;;;;;;28.52;17.33;;;1.90;80.30;;;;;;5053394;28;20084;-87
2022/03/02 05:36:24;;;;;;;30.75;16.95;;;1.90;80.00;;;;;;5050085;28;20891;-87
2022/03/02 05:38:52;;;;;;;31.75;18.02;;;1.90;80.20;;;;;;5045231;28;20112;-87
2022/03/02 05:41:19;;;;;;;26.13;15.88;;;1.80;80.40;;;;;;5044607;28;20049;-86
2022/03/02 05:43:46;;;;;;;30.75;17.02;;;1.70;80.50;;;;;;5047549;28;20500;-87
2022/03/02 05:46:14;;;;;;;39.28;21.30;;;1.70;80.90;;;;;;5038260;28;20065;-87
2022/03/02 05:48:43;;;;;;;31.75;18.40;;;1.60;82.20;;;;;;5053867;28;20054;-87
2022/03/02 05:51:11;;;;;;;32.75;18.02;;;1.50;82.60;;;;;;5053366;28;20074;-87
2022/03/02 05:53:38;;;;;;;28.67;16.48;;;1.50;81.30;;;;;;5061524;28;20562;-87
2022/03/02 05:56:06;;;;;;;33.38;17.83;;;1.40;81.30;;;;;;5056849;28;20057;-87
2022/03/02 05:58:33;;;;;;;35.42;17.90;;;1.40;81.40;;;;;;5055559;28;20057;-87
2022/03/02 06:01:00;;;;;;;32.92;17.63;;;1.30;80.90;;;;;;5057803;28;20048;-87
2022/03/02 06:03:29;;;;;;;24.90;14.18;;;1.30;80.30;;;;;;5051157;28;20057;-87
2022/03/02 06:09:49;;;;;;;28.65;15.20;;;1.20;80.50;;;;;;4953530;28;20055;-87
2022/03/02 06:12:16;;;;;;;30.67;16.10;;;1.20;81.20;;;;;;4979240;28;20046;-87
2022/03/02 06:14:48;;;;;;;30.45;16.08;;;1.10;80.80;;;;;;4986146;28;20952;-87
2022/03/02 06:17:15;;;;;;;25.95;15.35;;;1.10;80.70;;;;;;4972361;28;20040;-87
2022/03/02 06:19:42;;;;;;;28.55;16.38;;;1.00;81.30;;;;;;4976375;28;20138;-87
2022/03/02 06:22:10;;;;;;;29.20;16.50;;;1.00;81.30;;;;;;4981125;28;20055;-87
2022/03/02 06:24:51;;;;;;;31.27;17.50;;;1.00;80.70;;;;;;4978023;28;20062;-87
2022/03/02 06:27:41;;;;;;;28.25;17.27;;;0.90;80.20;;;;;;4974049;28;20151;-86
2022/03/02 06:34:08;;;;;;;25.25;15.57;;;0.90;80.20;;;;;;4918967;28;20144;-86
2022/03/02 06:36:36;;;;;;;29.40;15.80;;;0.90;80.40;;;;;;4968973;28;20099;-87
2022/03/02 06:39:03;;;;;;;29.35;14.85;;;0.90;80.90;;;;;;4972594;28;20503;-87
2022/03/02 06:41:58;;;;;;;31.40;16.02;;;0.90;80.80;;;;;;4970218;28;20052;-86
2022/03/02 06:45:03;;;;;;;30.77;15.85;;;0.90;81.50;;;;;;4974776;28;20142;-87
2022/03/02 06:47:56;;;;;;;33.25;16.02;;;0.90;81.00;;;;;;5027227;28;20947;-87
2022/03/02 06:50:31;;;;;;;38.80;17.13;;;0.90;82.30;;;;;;5052677;28;20048;-87
2022/03/02 06:53:01;;;;;;;30.15;15.88;;;0.80;81.50;;;;;;5050956;28;20080;-87
2022/03/02 06:55:30;;;;;;;27.38;14.93;;;0.90;82.10;;;;;;5053640;28;20152;-87
2022/03/02 06:58:00;;;;;;;28.58;16.23;;;0.90;82.10;;;;;;5068253;28;20061;-87
2022/03/02 07:00:27;;;;;;;31.10;17.20;;;0.80;82.40;;;;;;5072008;28;20028;-87
2022/03/02 07:03:04;;;;;;;34.25;17.27;;;0.90;81.80;;;;;;5075493;28;20068;-87
2022/03/02 07:05:34;;;;;;;35.70;17.38;;;0.80;81.80;;;;;;5071640;28;20049;-87
2022/03/02 07:08:03;;;;;;;34.95;18.13;;;0.80;81.80;;;;;;5080525;28;20045;-86
2022/03/02 07:10:36;;;;;;;30.27;16.92;;;0.90;81.80;;;;;;5065325;28;20499;-87
2022/03/02 07:13:04;;;;;;;;;;;0.90;81.40;;;;;;5063751;28;20105;-87
2022/03/02 07:15:33;;;;;;;30.13;15.60;;;0.90;81.50;;;;;;5034466;28;20830;-86
2022/03/02 07:18:02;;;;;;;29.75;16.80;;;0.90;81.50;;;;;;5051863;28;20045;-86
2022/03/02 07:20:29;;;;;;;26.02;16.23;;;0.90;83.40;;;;;;5042556;28;20042;-86
2022/03/02 07:26:29;;;;;;;39.38;20.35;;;0.90;83.40;;;;;;5042121;28;20056;-86
2022/03/02 07:29:15;;;;;;;35.92;19.98;;;1.00;83.00;;;;;;5073127;28;20060;-87
2022/03/02 07:32:17;;;;;;;;;;;;;;;;;;;;;
2022/03/02 07:35:05;;;;;;;40.72;20.48;;;1.10;86.10;;;;;;4998798;28;20050;-87
2022/03/02 07:41:23;;;;;;;36.63;20.02;;;1.40;86.70;;;;;;4979417;28;20043;-88
2022/03/02 07:44:14;;;;;;;40.25;21.85;;;1.50;85.60;;;;;;4950948;28;20051;-87
2022/03/02 07:46:59;;;;;;;35.30;19.67;;;1.50;85.20;;;;;;4955522;28;20123;-87
2022/03/02 07:49:52;;;;;;;37.92;20.75;;;1.60;84.50;;;;;;4955562;28;20054;-87
2022/03/02 07:52:29;;;;;;;39.10;19.80;;;1.70;85.30;;;;;;4945603;28;20100;-87
2022/03/02 07:55:09;;;;;;;41.85;22.63;;;1.70;85.70;;;;;;4935740;29;20064;-87
2022/03/02 07:57:46;;;;;;;39.90;21.43;;;1.80;86.30;;;;;;4941588;28;20063;-87
2022/03/02 08:00:14;;;;;;;42.53;22.63;;;1.90;85.50;;;;;;4950589;28;20357;-87
2022/03/02 08:02:56;;;;;;;40.15;22.02;;;2.00;85.40;;;;;;4955288;28;20129;-87
2022/03/02 08:05:50;;;;;;;42.58;22.17;;;2.10;85.70;;;;;;4964968;28;20066;-87
2022/03/02 08:08:21;;;;;;;43.28;24.20;;;2.20;86.50;;;;;;4988425;28;20057;-84
2022/03/02 08:10:52;;;;;;;51.60;24.27;;;2.30;86.50;;;;;;5049074;28;20053;-85
2022/03/02 08:13:27;;;;;;;41.25;23.20;;;2.60;85.00;;;;;;5055038;28;20451;-85
2022/03/02 08:16:35;;;;;;;40.90;22.58;;;2.70;84.10;;;;;;5049306;28;20091;-85
2022/03/02 08:19:05;;;;;;;46.00;22.55;;;2.90;83.20;;;;;;5048024;28;20060;-87
2022/03/02 08:21:49;;;;;;;40.33;22.95;;;3.10;83.10;;;;;;5052210;28;20058;-87
2022/03/02 08:24:27;;;;;;;38.25;21.25;;;3.40;82.70;;;;;;5061243;28;20041;-87
2022/03/02 08:27:04;;;;;;;37.28;20.45;;;3.50;81.20;;;;;;5046293;28;20516;-87
2022/03/02 08:29:36;;;;;;;42.10;22.25;;;3.70;78.60;;;;;;5058270;28;20105;-87
2022/03/02 08:32:13;;;;;;;39.90;20.98;;;3.90;78.30;;;;;;5036624;28;20050;-87
2022/03/02 08:37:34;;;;;;;46.90;20.88;;;4.60;73.10;;;;;;5033273;28;20053;-87
2022/03/02 08:40:21;;;;;;;36.28;20.58;;;5.20;71.10;;;;;;5047368;28;20144;-84
2022/03/02 08:42:50;;;;;;;41.58;19.92;;;5.60;71.20;;;;;;5036160;28;20776;-85
2022/03/02 08:45:38;;;;;;;32.85;18.90;;;6.30;71.40;;;;;;4983607;28;20187;-85
2022/03/02 08:48:09;;;;;;;34.45;19.60;;;6.80;68.40;;;;;;4994210;28;20083;-85
2022/03/02 08:50:55;;;;;;;33.88;18.92;;;7.00;68.60;;;;;;4972717;28;20051;-85
2022/03/02 08:53:32;;;;;;;35.33;19.30;;;7.40;66.30;;;;;;4988865;28;20062;-85
2022/03/02 08:56:06;;;;;;;30.27;18.17;;;7.60;67.20;;;;;;4989520;28;20133;-85
2022/03/02 08:58:42;;;;;;;33.20;19.00;;;7.80;64.30;;;;;;4967675;28;20580;-85
2022/03/02 09:01:58;;;;;;;;;;;;;;;;;;;;;
2022/03/02 09:04:55;;;;;;;31.98;18.38;;;8.80;63.50;;;;;;5053788;28;20057;-86
2022/03/02 09:08:37;;;;;;;;;;;;;;;;;;;;;
2022/03/02 09:11:58;;;;;;;32.25;17.17;;;9.50;58.10;;;;;;4979660;28;20058;-86
2022/03/02 09:18:29;;;;;;;37.40;18.02;;;9.90;54.00;;;;;;4879413;29;20104;-86
2022/03/02 09:21:16;;;;;;;29.73;16.33;;;9.90;53.20;;;;;;4860635;29;20057;-86
2022/03/02 09:23:51;;;;;;;30.88;16.10;;;10.20;52.50;;;;;;4880474;29;20140;-86
2022/03/02 09:26:22;;;;;;;29.45;16.55;;;10.50;54.70;;;;;;4880790;29;20057;-86
2022/03/02 09:28:52;;;;;;;28.55;15.98;;;10.70;51.20;;;;;;4904589;28;20111;-86
2022/03/02 09:31:49;;;;;;;28.67;16.05;;;11.00;50.50;;;;;;4946845;28;20056;-86
2022/03/02 09:35:48;;;;;;;26.95;15.15;;;11.10;50.80;;;;;;4887817;29;20053;-86
2022/03/02 09:38:33;;;;;;;26.38;15.93;;;10.90;48.00;;;;;;4901081;29;20054;-87
2022/03/02 09:41:11;;;;;;;31.58;16.38;;;11.50;51.50;;;;;;4907207;28;20057;-87
2022/03/02 09:44:28;;;;;;;25.83;15.85;;;11.90;47.40;;;;;;4948804;28;20103;-87
2022/03/02 09:47:09;;;;;;;24.52;15.07;;;11.90;50.80;;;;;;4935867;28;20044;-87
2022/03/02 09:49:54;;;;;;;27.65;16.08;;;11.90;45.30;;;;;;4958628;28;20046;-87
2022/03/02 09:53:06;;;;;;;28.75;16.08;;;11.90;47.20;;;;;;4974466;28;20061;-86
2022/03/02 09:55:40;;;;;;;30.02;15.35;;;12.00;46.50;;;;;;5056090;28;20140;-86
2022/03/02 09:58:27;;;;;;;22.38;14.85;;;12.40;47.00;;;;;;5063823;28;20105;-86
2022/03/02 10:05:20;;;;;;;27.05;15.50;;;12.60;49.40;;;;;;5035570;28;20496;-86
2022/03/02 10:08:43;;;;;;;24.92;15.05;;;12.90;48.80;;;;;;4990643;28;20043;-86
2022/03/02 10:12:03;;;;;;;;;;;;;;;;;;;;;
2022/03/02 10:14:48;;;;;;;23.83;14.60;;;12.00;44.30;;;;;;5033095;28;20053;-86
2022/03/02 10:21:39;;;;;;;25.42;14.52;;;12.10;43.40;;;;;;5041615;28;20061;-86
2022/03/02 10:24:49;;;;;;;22.23;14.20;;;12.10;43.90;;;;;;4966265;28;20138;-86
2022/03/02 10:28:25;;;;;;;23.88;13.65;;;12.40;41.90;;;;;;4935548;28;20899;-86
2022/03/02 10:31:54;;;;;;;24.35;13.48;;;12.60;41.40;;;;;;4963687;28;20060;-86
2022/03/02 10:34:49;;;;;;;21.45;13.25;;;12.80;44.00;;;;;;4947137;28;20052;-87
2022/03/02 10:37:27;;;;;;;22.60;13.40;;;13.00;43.50;;;;;;4949596;28;20056;-86
2022/03/02 10:44:02;;;;;;;22.83;14.40;;;13.30;42.00;;;;;;4949138;28;20111;-86
2022/03/02 10:47:33;;;;;;;21.77;12.65;;;13.30;40.30;;;;;;4952204;28;20059;-86
2022/03/02 10:50:49;;;;;;;;;;;;;;;;;;;;;
2022/03/02 10:54:01;;;;;;;21.23;13.38;;;13.80;42.10;;;;;;4915392;29;20193;-86
2022/03/02 10:57:01;;;;;;;20.13;12.07;;;13.70;37.80;;;;;;4943458;28;20455;-86
2022/03/02 11:00:19;;;;;;;;;;;;;;;;;;;;;
2022/03/02 11:07:17;;;;;;;19.55;11.90;;;13.30;40.80;;;;;;5067670;28;20037;-86
2022/03/02 11:14:25;;;;;;;21.38;12.65;;;13.00;38.20;;;;;;4934129;28;20039;-86
2022/03/02 11:17:37;;;;;;;18.20;11.77;;;13.20;38.00;;;;;;4994437;28;20133;-86
2022/03/02 11:21:20;;;;;;;;;;;;;;;;;;;;;
2022/03/02 11:31:32;;;;;;;17.42;9.57;;;12.70;37.00;;;;;;4992662;28;20043;-86
2022/03/02 11:35:16;;;;;;;;;;;;;;;;;;;;;
2022/03/02 11:41:58;;;;;;;14.95;9.38;;;12.80;35.70;;;;;;4933630;29;20052;-86
2022/03/02 11:45:06;;;;;;;17.00;9.77;;;12.70;35.50;;;;;;4939187;28;20064;-88
2022/03/02 11:52:35;;;;;;;16.92;9.13;;;12.60;37.70;;;;;;4862222;29;20812;-86
2022/03/02 11:55:10;;;;;;;15.40;9.10;;;12.20;34.70;;;;;;4879097;29;20049;-87
2022/03/02 11:57:56;;;;;;;13.95;8.50;;;12.20;35.90;;;;;;4859528;29;20081;-85
2022/03/02 12:00:59;;;;;;;16.10;8.50;;;12.40;35.20;;;;;;4863183;29;20058;-85
2022/03/02 12:04:03;;;;;;;14.43;8.90;;;12.40;35.40;;;;;;4878373;29;20086;-86
2022/03/02 12:06:52;;;;;;;17.40;8.90;;;12.50;36.20;;;;;;4934728;28;20534;-86
2022/03/02 12:09:30;;;;;;;14.82;8.25;;;12.50;35.20;;;;;;4920150;29;20172;-86
2022/03/02 12:12:18;;;;;;;14.85;8.25;;;12.30;34.50;;;;;;4920067;29;20055;-87
2022/03/02 12:15:06;;;;;;;14.63;7.13;;;12.30;33.80;;;;;;4933027;28;20534;-85
2022/03/02 12:17:49;;;;;;;11.88;7.50;;;12.20;34.30;;;;;;4973276;28;20059;-86
2022/03/02 12:23:34;;;;;;;13.07;7.15;;;12.20;33.00;;;;;;4970647;28;20057;-87
2022/03/02 12:26:05;;;;;;;;;;;12.20;36.30;;;;;;5046781;28;20140;-86
2022/03/02 12:28:53;;;;;;;12.35;7.85;;;12.20;36.30;;;;;;5037133;28;19925;-86
2022/03/02 12:31:32;;;;;;;12.70;6.80;;;12.30;35.30;;;;;;5014041;28;20121;-86
2022/03/02 12:34:35;;;;;;;12.02;7.30;;;12.20;32.80;;;;;;5028090;28;20056;-87
2022/03/02 12:37:08;;;;;;;13.75;7.00;;;12.00;33.00;;;;;;5033489;28;20054;-86
2022/03/02 12:40:10;;;;;;;13.30;7.20;;;12.10;33.30;;;;;;5034633;28;20229;-86
2022/03/02 12:43:16;;;;;;;12.95;7.45;;;12.20;35.60;;;;;;4975531;28;20059;-86
2022/03/02 12:45:55;;;;;;;12.43;6.95;;;12.40;33.10;;;;;;4973195;28;20133;-86
2022/03/02 12:48:24;;;;;;;11.95;7.80;;;12.30;32.10;;;;;;4973111;28;20055;-86
2022/03/02 12:51:28;;;;;;;12.60;7.63;;;12.30;32.60;;;;;;4958965;28;20104;-86
2022/03/02 12:54:03;;;;;;;12.13;7.70;;;12.20;33.70;;;;;;4972496;28;20142;-86
2022/03/02 12:56:40;;;;;;;11.93;7.22;;;12.30;34.30;;;;;;4981506;28;20146;-86
2022/03/02 12:59:25;;;;;;;12.93;7.35;;;12.50;35.10;;;;;;4987110;28;20048;-86
2022/03/02 13:02:44;;;;;;;15.07;7.90;;;12.60;33.70;;;;;;4932657;29;20420;-86
2022/03/02 13:06:15;;;;;;;11.45;7.45;;;12.50;33.30;;;;;;4923103;29;20056;-86
2022/03/02 13:09:42;;;;;;;13.03;7.80;;;12.50;33.60;;;;;;4936208;28;20083;-86
2022/03/02 13:13:00;;;;;;;17.88;8.15;;;12.50;32.90;;;;;;4951180;28;20043;-86
2022/03/02 13:16:29;;;;;;;14.90;7.78;;;12.50;34.80;;;;;;4933715;28;20052;-86
2022/03/02 13:19:15;;;;;;;12.00;7.63;;;12.50;33.50;;;;;;4933079;28;20032;-86
2022/03/02 13:22:09;;;;;;;13.27;7.20;;;12.50;34.00;;;;;;4971488;28;20047;-86
2022/03/02 13:25:13;;;;;;;13.43;7.00;;;12.60;33.80;;;;;;4943158;28;20140;-86
2022/03/02 13:31:43;;;;;;;14.88;8.95;;;12.50;33.80;;;;;;4871455;29;20153;-85
2022/03/02 13:35:05;;;;;;;12.73;8.13;;;12.40;33.70;;;;;;4833806;29;20066;-86
2022/03/02 13:38:33;;;;;;;10.52;6.90;;;12.50;33.50;;;;;;4805191;29;20051;-86
2022/03/02 13:41:11;;;;;;;12.27;7.32;;;12.50;34.10;;;;;;4800808;29;20138;-86
2022/03/02 13:44:14;;;;;;;13.15;7.30;;;12.60;32.50;;;;;;4806316;29;20054;-86
2022/03/02 13:46:54;;;;;;;;;;;;;;;;;;;;;
2022/03/02 13:50:21;;;;;;;13.65;7.70;;;12.40;34.20;;;;;;4794191;29;20067;-87
2022/03/02 13:53:17;;;;;;;13.98;8.52;;;12.30;34.60;;;;;;4803357;29;20055;-86
2022/03/02 13:56:13;;;;;;;14.70;8.50;;;12.20;34.20;;;;;;4804189;29;20068;-86
2022/03/02 14:00:07;;;;;;;13.73;7.97;;;12.20;33.90;;;;;;4813084;29;20070;-86
2022/03/02 14:06:25;;;;;;;15.68;7.85;;;12.00;34.00;;;;;;4908570;29;20448;-87
2022/03/02 14:09:11;;;;;;;13.85;8.00;;;12.00;33.40;;;;;;4968479;28;20602;-86
2022/03/02 14:11:58;;;;;;;13.73;7.80;;;11.90;33.30;;;;;;4979530;28;20043;-85
2022/03/02 14:15:44;;;;;;;14.40;8.25;;;11.90;33.90;;;;;;5005612;28;20053;-86
2022/03/02 14:21:42;;;;;;;13.95;8.52;;;11.80;34.40;;;;;;5038282;28;20034;-87
2022/03/02 14:25:04;;;;;;;15.45;9.18;;;11.70;35.60;;;;;;5026419;28;20069;-87
2022/03/02 14:35:56;;;;;;;21.55;11.55;;;11.50;36.10;;;;;;4880421;29;20072;-86
2022/03/02 14:39:36;;;;;;;14.35;8.90;;;11.50;36.60;;;;;;4869704;29;20065;-87
2022/03/02 14:43:14;;;;;;;;;;;;;;;;;;;;;
2022/03/02 14:45:44;;;;;;;15.38;8.48;;;11.40;35.40;;;;;;4828606;29;29422;-86
2022/03/02 14:49:07;;;;;;;;;;;;;;;;;;;;;
2022/03/02 14:52:02;;;;;;;14.45;8.13;;;11.30;36.70;;;;;;4829817;29;20057;-86
2022/03/02 14:55:28;;;;;;;13.55;7.20;;;11.20;36.50;;;;;;4843028;29;20055;-87
2022/03/02 14:58:42;;;;;;;13.55;7.45;;;11.20;36.60;;;;;;4844965;29;20945;-86
2022/03/02 15:02:04;;;;;;;15.68;8.90;;;11.20;37.30;;;;;;4842915;29;20086;-86
2022/03/02 15:05:29;;;;;;;;;;;;;;;;;;;;;
2022/03/02 15:08:14;;;;;;;14.50;8.43;;;11.00;36.00;;;;;;4958875;28;20040;-87
2022/03/02 15:11:21;;;;;;;11.80;6.88;;;11.00;36.50;;;;;;4946974;29;20060;-87
2022/03/02 15:17:21;;;;;;;12.60;6.47;;;10.90;36.40;;;;;;4949331;29;20064;-88
2022/03/02 15:20:09;;;;;;;12.48;7.25;;;10.90;36.00;;;;;;5008357;28;20055;-88
2022/03/02 15:22:54;;;;;;;11.65;7.10;;;11.00;36.40;;;;;;5008986;28;20034;-88
2022/03/02 15:26:19;;;;;;;12.38;6.82;;;10.90;36.60;;;;;;4912769;29;20112;-88